createdAt,value
2019-04-06T00:00:51.908Z,1001.00
2019-04-06T00:01:51.947Z,1000.99
2019-04-06T00:02:52.308Z,1000.99
2019-04-06T00:03:52.216Z,1000.97
2019-04-06T00:04:52.071Z,1001.00
2019-04-06T00:05:52.055Z,1000.99
2019-04-06T00:06:52.204Z,1000.97
2019-04-06T00:07:52.106Z,1001.00
2019-04-06T00:08:52.186Z,1000.96
2019-04-06T00:09:52.518Z,1000.96
2019-04-06T00:10:52.265Z,1000.95
2019-04-06T00:11:52.286Z,1000.95
2019-04-06T00:12:52.311Z,1000.95
2019-04-06T00:13:52.299Z,1000.95
2019-04-06T00:14:52.375Z,1000.96
2019-04-06T00:15:52.396Z,1000.94
2019-04-06T00:16:52.757Z,1000.98
2019-04-06T00:17:52.433Z,1000.98
2019-04-06T00:18:52.497Z,1000.98
2019-04-06T00:19:52.519Z,1000.98
2019-04-06T00:20:52.520Z,1000.98
2019-04-06T00:21:52.600Z,1001.01
2019-04-06T00:22:52.628Z,1000.99
2019-04-06T00:23:52.959Z,1000.96
2019-04-06T00:24:52.642Z,1000.99
2019-04-06T00:25:52.673Z,1000.99
2019-04-06T00:26:52.701Z,1000.94
2019-04-06T00:27:52.728Z,1000.96
2019-04-06T00:28:52.815Z,1000.91
2019-04-06T00:29:52.790Z,1000.93
2019-04-06T00:30:53.198Z,1000.89
2019-04-06T00:31:52.864Z,1000.94
2019-04-06T00:32:52.934Z,1000.92
2019-04-06T00:33:52.976Z,1000.89
2019-04-06T00:34:53.001Z,1000.92
2019-04-06T00:35:52.999Z,1000.91
2019-04-06T00:36:53.006Z,1000.86
2019-04-06T00:37:53.390Z,1000.85
2019-04-06T00:38:53.068Z,1000.84
2019-04-06T00:39:53.148Z,1000.83
2019-04-06T00:40:53.184Z,1000.88
2019-04-06T00:41:53.166Z,1000.84
2019-04-06T00:42:53.201Z,1000.84
2019-04-06T00:44:53.259Z,1000.86
2019-04-06T00:45:53.340Z,1000.80
2019-04-06T00:46:53.374Z,1000.78
2019-04-06T00:47:53.351Z,1000.76
2019-04-06T00:48:53.399Z,1000.79
2019-04-06T00:49:53.467Z,1000.79
2019-04-06T00:50:53.491Z,1000.78
2019-04-06T00:51:53.779Z,1000.75
2019-04-06T00:52:53.510Z,1000.76
2019-04-06T00:53:53.541Z,1000.75
2019-04-06T00:54:53.621Z,1000.74
2019-04-06T00:55:55.947Z,1000.73
2019-04-06T00:56:53.675Z,1000.74
2019-04-06T00:57:53.663Z,1000.77
2019-04-06T00:58:54.047Z,1000.71
2019-04-06T00:59:53.771Z,1000.73
2019-04-06T01:00:53.790Z,1000.70
2019-04-06T01:01:53.839Z,1000.71
2019-04-06T01:02:53.811Z,1000.75
2019-04-06T01:03:53.942Z,1000.70
2019-04-06T01:04:53.883Z,1000.72
2019-04-06T01:05:54.205Z,1000.76
2019-04-06T01:06:53.940Z,1000.75
2019-04-06T01:07:53.972Z,1000.76
2019-04-06T01:08:54.055Z,1000.78
2019-04-06T01:09:54.033Z,1000.77
2019-04-06T01:10:54.127Z,1000.80
2019-04-06T01:11:54.090Z,1000.75
2019-04-06T01:12:54.423Z,1000.72
2019-04-06T01:13:54.206Z,1000.72
2019-04-06T01:14:54.242Z,1000.72
2019-04-06T01:15:54.286Z,1000.73
2019-04-06T01:16:54.296Z,1000.68
2019-04-06T01:17:54.288Z,1000.70
2019-04-06T01:18:54.321Z,1000.70
2019-04-06T01:19:54.653Z,1000.72
2019-04-06T01:20:54.423Z,1000.73
2019-04-06T01:21:54.460Z,1000.74
2019-04-06T01:22:54.439Z,1000.74
2019-04-06T01:23:54.471Z,1000.73
2019-04-06T01:24:54.554Z,1000.71
2019-04-06T01:25:54.530Z,1000.71
2019-04-06T01:27:54.888Z,1000.67
2019-04-06T01:28:54.627Z,1000.70
2019-04-06T01:30:54.688Z,1000.74
2019-04-06T01:31:54.720Z,1000.70
2019-04-06T01:32:54.791Z,1000.74
2019-04-06T01:33:54.781Z,1000.71
2019-04-06T01:35:55.198Z,1000.71
2019-04-06T01:36:54.922Z,1000.74
2019-04-06T01:37:54.901Z,1000.75
2019-04-06T01:39:54.963Z,1000.76
2019-04-06T01:40:55.041Z,1000.72
2019-04-06T01:41:55.037Z,1000.73
2019-04-06T01:42:55.371Z,1000.74
2019-04-06T01:43:55.090Z,1000.73
2019-04-06T01:44:55.175Z,1000.71
2019-04-06T01:45:55.240Z,1000.67
2019-04-06T01:46:55.178Z,1000.61
2019-04-06T01:47:55.365Z,1000.65
2019-04-06T01:48:55.243Z,1000.61
2019-04-06T01:49:55.574Z,1000.62
2019-04-06T01:50:55.312Z,1000.63
2019-04-06T01:51:55.341Z,1000.65
2019-04-06T01:52:55.418Z,1000.60
2019-04-06T01:53:55.402Z,1000.62
2019-04-06T01:54:55.485Z,1000.62
2019-04-06T01:55:55.465Z,1000.58
2019-04-06T01:56:55.790Z,1000.57
2019-04-06T01:57:55.535Z,1000.56
2019-04-06T01:58:55.603Z,1000.53
2019-04-06T01:59:55.583Z,1000.56
2019-04-06T02:00:55.612Z,1000.54
2019-04-06T02:01:55.918Z,1000.57
2019-04-06T02:02:55.745Z,1000.59
2019-04-06T02:03:56.063Z,1000.58
2019-04-06T02:04:55.791Z,1000.56
2019-04-06T02:06:55.874Z,1000.55
2019-04-06T02:07:55.830Z,1000.53
2019-04-06T02:09:55.942Z,1000.52
2019-04-06T02:10:56.244Z,1000.52
2019-04-06T02:11:55.957Z,1000.54
2019-04-06T02:13:56.017Z,1000.50
2019-04-06T02:16:56.160Z,1000.44
2019-04-06T02:18:56.599Z,1000.47
2019-04-06T02:19:56.276Z,1000.46
2019-04-06T02:20:56.282Z,1000.47
2019-04-06T02:21:56.339Z,1000.44
2019-04-06T02:22:56.297Z,1000.46
2019-04-06T02:24:56.404Z,1000.42
2019-04-06T02:25:56.735Z,1000.43
2019-04-06T02:26:56.426Z,1000.41
2019-04-06T02:27:56.544Z,1000.50
2019-04-06T02:28:56.482Z,1000.44
2019-04-06T02:29:56.520Z,1000.43
2019-04-06T02:30:56.545Z,1000.48
2019-04-06T02:31:56.575Z,1000.43
2019-04-06T02:32:56.666Z,1000.43
2019-04-06T02:33:56.637Z,1000.44
2019-04-06T02:34:56.719Z,1000.44
2019-04-06T02:36:56.734Z,1000.46
2019-04-06T02:37:56.773Z,1000.47
2019-04-06T02:38:57.318Z,1000.47
2019-04-06T02:39:56.827Z,1000.54
2019-04-06T02:40:56.930Z,1000.53
2019-04-06T02:41:56.953Z,1000.53
2019-04-06T02:42:56.977Z,1000.53
2019-04-06T02:43:56.994Z,1000.52
2019-04-06T02:44:57.277Z,1000.54
2019-04-06T02:45:57.165Z,1000.50
2019-04-06T02:46:57.040Z,1000.50
2019-04-06T02:47:57.218Z,1000.54
2019-04-06T02:48:57.161Z,1000.54
2019-04-06T02:49:57.133Z,1000.52
2019-04-06T02:50:57.519Z,1000.51
2019-04-06T02:51:57.197Z,1000.53
2019-04-06T02:52:57.278Z,1000.54
2019-04-06T02:53:57.263Z,1000.53
2019-04-06T02:54:57.368Z,1000.57
2019-04-06T02:55:57.345Z,1000.56
2019-04-06T02:56:57.650Z,1000.57
2019-04-06T02:57:57.378Z,1000.58
2019-04-06T02:58:57.464Z,1000.54
2019-04-06T02:59:57.498Z,1000.61
2019-04-06T03:00:57.531Z,1000.60
2019-04-06T03:03:57.577Z,1000.58
2019-04-06T03:04:57.957Z,1000.54
2019-04-06T03:05:57.628Z,1000.56
2019-04-06T03:06:57.721Z,1000.54
2019-04-06T03:07:57.691Z,1000.54
2019-04-06T03:08:57.883Z,1000.56
2019-04-06T03:09:57.810Z,1000.57
2019-04-06T03:10:57.861Z,1000.58
2019-04-06T03:11:58.343Z,1000.56
2019-04-06T03:12:57.963Z,1000.58
2019-04-06T03:13:58.043Z,1000.57
2019-04-06T03:14:57.966Z,1000.57
2019-04-06T03:15:57.991Z,1000.59
2019-04-06T03:16:58.192Z,1000.57
2019-04-06T03:17:58.010Z,1000.57
2019-04-06T03:18:58.379Z,1000.56
2019-04-06T03:19:58.121Z,1000.54
2019-04-06T03:20:58.143Z,1000.54
2019-04-06T03:21:58.128Z,1000.55
2019-04-06T03:22:58.214Z,1000.53
2019-04-06T03:23:58.558Z,1000.53
2019-04-06T03:24:58.223Z,1000.56
2019-04-06T03:25:58.611Z,1000.56
2019-04-06T03:27:02.200Z,1000.53
2019-04-06T03:27:58.331Z,1000.54
2019-04-06T03:28:58.341Z,1000.51
2019-04-06T03:29:59.235Z,1000.52
2019-04-06T03:30:58.778Z,1000.50
2019-04-06T03:31:58.434Z,1000.51
2019-04-06T03:32:59.130Z,1000.52
2019-04-06T03:33:58.636Z,1000.51
2019-04-06T03:34:58.946Z,1000.52
2019-04-06T03:35:58.608Z,1000.53
2019-04-06T03:36:58.750Z,1000.55
2019-04-06T03:37:58.623Z,1000.55
2019-04-06T03:38:58.725Z,1000.57
2019-04-06T03:39:58.987Z,1000.54
2019-04-06T03:40:58.858Z,1000.57
2019-04-06T03:41:58.813Z,1000.56
2019-04-06T03:42:58.994Z,1000.61
2019-04-06T03:43:58.810Z,1000.56
2019-04-06T03:44:58.849Z,1000.59
2019-04-06T03:45:58.878Z,1000.61
2019-04-06T03:46:59.211Z,1000.60
2019-04-06T03:47:59.306Z,1000.61
2019-04-06T03:48:59.013Z,1000.57
2019-04-06T03:49:59.118Z,1000.63
2019-04-06T03:50:59.047Z,1000.59
2019-04-06T03:51:59.064Z,1000.60
2019-04-06T03:52:59.441Z,1000.56
2019-04-06T03:53:59.421Z,1000.58
2019-04-06T03:54:59.251Z,1000.60
2019-04-06T03:55:59.330Z,1000.62
2019-04-06T03:57:13.188Z,1000.58
2019-04-06T03:57:59.309Z,1000.60
2019-04-06T03:58:59.331Z,1000.59
2019-04-06T04:00:59.334Z,1000.60
2019-04-06T04:01:59.663Z,1000.59
2019-04-06T04:02:59.399Z,1000.60
2019-04-06T04:03:59.479Z,1000.65
2019-04-06T04:04:59.719Z,1000.61
2019-04-06T04:05:59.495Z,1000.65
2019-04-06T04:06:59.565Z,1000.59
2019-04-06T04:07:59.549Z,1000.59
2019-04-06T04:08:59.944Z,1000.60
2019-04-06T04:09:59.618Z,1000.62
2019-04-06T04:10:59.746Z,1000.62
2019-04-06T04:11:59.726Z,1000.60
2019-04-06T04:12:59.718Z,1000.58
2019-04-06T04:13:59.840Z,1000.56
2019-04-06T04:14:59.816Z,1000.55
2019-04-06T04:16:00.099Z,1000.53
2019-04-06T04:16:59.876Z,1000.53
2019-04-06T04:17:59.941Z,1000.51
2019-04-06T04:19:00.050Z,1000.53
2019-04-06T04:19:59.923Z,1000.51
2019-04-06T04:21:00.117Z,1000.53
2019-04-06T04:21:59.984Z,1000.54
2019-04-06T04:23:00.072Z,1000.52
2019-04-06T04:24:00.045Z,1000.49
2019-04-06T04:25:00.084Z,1000.50
2019-04-06T04:26:00.118Z,1000.53
2019-04-06T04:27:00.197Z,1000.53
2019-04-06T04:28:00.184Z,1000.57
2019-04-06T04:29:00.560Z,1000.56
2019-04-06T04:30:00.234Z,1000.59
2019-04-06T04:32:00.352Z,1000.61
2019-04-06T04:33:00.324Z,1000.61
2019-04-06T04:34:00.400Z,1000.56
2019-04-06T04:35:00.800Z,1000.62
2019-04-06T04:36:00.796Z,1000.61
2019-04-06T04:37:00.447Z,1000.59
2019-04-06T04:38:00.714Z,1000.58
2019-04-06T04:39:00.577Z,1000.61
2019-04-06T04:40:00.715Z,1000.61
2019-04-06T04:41:00.941Z,1000.61
2019-04-06T04:42:00.914Z,1000.64
2019-04-06T04:43:00.683Z,1000.65
2019-04-06T04:44:00.662Z,1000.62
2019-04-06T04:45:00.746Z,1000.66
2019-04-06T04:46:00.834Z,1000.68
2019-04-06T04:47:00.845Z,1000.66
2019-04-06T04:48:01.393Z,1000.71
2019-04-06T04:51:00.885Z,1000.71
2019-04-06T04:52:01.084Z,1000.75
2019-04-06T04:53:00.995Z,1000.72
2019-04-06T04:54:01.286Z,1000.71
2019-04-06T04:55:01.058Z,1000.71
2019-04-06T04:56:01.035Z,1000.74
2019-04-06T04:57:01.116Z,1000.74
2019-04-06T04:58:01.147Z,1000.77
2019-04-06T04:59:01.181Z,1000.81
2019-04-06T05:00:01.408Z,1000.76
2019-04-06T05:01:01.495Z,1000.73
2019-04-06T05:02:01.222Z,1000.73
2019-04-06T05:03:01.330Z,1000.73
2019-04-06T05:04:01.331Z,1000.76
2019-04-06T05:05:01.318Z,1000.74
2019-04-06T05:06:01.500Z,1000.74
2019-04-06T05:07:01.429Z,1000.77
2019-04-06T05:08:02.060Z,1000.79
2019-04-06T05:09:01.664Z,1000.76
2019-04-06T05:10:01.649Z,1000.78
2019-04-06T05:11:01.545Z,1000.83
2019-04-06T05:12:01.593Z,1000.79
2019-04-06T05:13:01.604Z,1000.82
2019-04-06T05:14:01.641Z,1000.83
2019-04-06T05:15:01.920Z,1000.81
2019-04-06T05:16:01.707Z,1000.84
2019-04-06T05:17:01.743Z,1000.84
2019-04-06T05:18:01.713Z,1000.85
2019-04-06T05:19:01.800Z,1000.88
2019-04-06T05:20:01.780Z,1000.89
2019-04-06T05:21:01.851Z,1000.92
2019-04-06T05:23:01.922Z,1000.93
2019-04-06T05:24:01.983Z,1000.94
2019-04-06T05:25:02.387Z,1000.93
2019-04-06T05:26:02.083Z,1000.93
2019-04-06T05:27:01.995Z,1000.92
2019-04-06T05:28:02.127Z,1000.93
2019-04-06T05:29:02.362Z,1000.92
2019-04-06T05:30:02.113Z,1000.98
2019-04-06T05:31:02.167Z,1000.94
2019-04-06T05:32:02.207Z,1000.97
2019-04-06T05:33:02.258Z,1000.97
2019-04-06T05:34:02.259Z,1001.00
2019-04-06T05:35:02.299Z,1000.99
2019-04-06T05:36:02.574Z,1001.02
2019-04-06T05:38:02.398Z,1001.01
2019-04-06T05:39:02.374Z,1001.04
2019-04-06T05:40:02.402Z,1001.01
2019-04-06T05:41:02.426Z,1001.03
2019-04-06T05:42:02.457Z,1001.05
2019-04-06T05:43:02.833Z,1001.05
2019-04-06T05:44:02.572Z,1001.04
2019-04-06T05:45:02.790Z,1001.06
2019-04-06T05:46:02.631Z,1001.10
2019-04-06T05:47:02.658Z,1001.11
2019-04-06T05:48:02.640Z,1001.08
2019-04-06T05:49:02.716Z,1001.11
2019-04-06T05:50:02.997Z,1001.14
2019-04-06T05:51:02.740Z,1001.17
2019-04-06T05:52:02.846Z,1001.14
2019-04-06T05:53:02.796Z,1001.16
2019-04-06T05:54:02.875Z,1001.15
2019-04-06T05:56:02.895Z,1001.19
2019-04-06T05:58:04.722Z,1001.18
2019-04-06T05:59:03.036Z,1001.17
2019-04-06T06:00:03.060Z,1001.18
2019-04-06T06:01:04.095Z,1001.18
2019-04-06T06:02:03.084Z,1001.22
2019-04-06T06:03:03.172Z,1001.23
2019-04-06T06:04:03.529Z,1001.24
2019-04-06T06:05:03.553Z,1001.25
2019-04-06T06:06:03.253Z,1001.25
2019-04-06T06:07:03.223Z,1001.27
2019-04-06T06:08:03.505Z,1001.28
2019-04-06T06:09:03.290Z,1001.28
2019-04-06T06:10:03.369Z,1001.27
2019-04-06T06:12:03.555Z,1001.28
2019-04-06T06:13:03.419Z,1001.28
2019-04-06T06:14:03.495Z,1001.30
2019-04-06T06:15:03.522Z,1001.29
2019-04-06T06:16:03.558Z,1001.32
2019-04-06T06:17:03.594Z,1001.27
2019-04-06T06:18:04.040Z,1001.29
2019-04-06T06:19:03.652Z,1001.31
2019-04-06T06:20:03.703Z,1001.28
2019-04-06T06:21:03.658Z,1001.29
2019-04-06T06:22:03.756Z,1001.33
2019-04-06T06:23:03.775Z,1001.32
2019-04-06T06:24:03.748Z,1001.28
2019-04-06T06:25:04.088Z,1001.30
2019-04-06T06:26:03.934Z,1001.28
2019-04-06T06:27:03.897Z,1001.27
2019-04-06T06:28:13.711Z,1001.30
2019-04-06T06:29:03.962Z,1001.26
2019-04-06T06:30:03.941Z,1001.28
2019-04-06T06:31:04.268Z,1001.28
2019-04-06T06:32:03.996Z,1001.31
2019-04-06T06:33:04.076Z,1001.33
2019-04-06T06:34:04.117Z,1001.35
2019-04-06T06:35:04.144Z,1001.33
2019-04-06T06:36:04.206Z,1001.37
2019-04-06T06:37:04.456Z,1001.30
2019-04-06T06:38:04.243Z,1001.32
2019-04-06T06:39:04.218Z,1001.32
2019-04-06T06:40:04.461Z,1001.35
2019-04-06T06:41:04.280Z,1001.35
2019-04-06T06:42:04.314Z,1001.35
2019-04-06T06:43:04.734Z,1001.33
2019-04-06T06:44:04.573Z,1001.32
2019-04-06T06:45:04.559Z,1001.31
2019-04-06T06:46:04.546Z,1001.31
2019-04-06T06:47:04.518Z,1001.34
2019-04-06T06:48:04.504Z,1001.34
2019-04-06T06:49:04.608Z,1001.35
2019-04-06T06:50:04.858Z,1001.35
2019-04-06T06:51:04.593Z,1001.34
2019-04-06T06:52:04.623Z,1001.33
2019-04-06T06:53:04.707Z,1001.31
2019-04-06T06:54:04.686Z,1001.31
2019-04-06T06:55:04.773Z,1001.31
2019-04-06T06:56:04.755Z,1001.30
2019-04-06T06:57:05.129Z,1001.34
2019-04-06T06:58:04.862Z,1001.32
2019-04-06T06:59:04.850Z,1001.31
2019-04-06T07:00:04.890Z,1001.32
2019-04-06T07:01:04.905Z,1001.33
2019-04-06T07:02:05.043Z,1001.35
2019-04-06T07:03:04.969Z,1001.28
2019-04-06T07:04:05.305Z,1001.26
2019-04-06T07:05:05.392Z,1001.33
2019-04-06T07:06:05.076Z,1001.30
2019-04-06T07:07:05.113Z,1001.31
2019-04-06T07:08:05.183Z,1001.31
2019-04-06T07:09:05.205Z,1001.30
2019-04-06T07:10:06.237Z,1001.27
2019-04-06T07:11:05.520Z,1001.29
2019-04-06T07:12:05.295Z,1001.28
2019-04-06T07:13:05.398Z,1001.24
2019-04-06T07:14:05.346Z,1001.24
2019-04-06T07:15:05.512Z,1001.25
2019-04-06T07:16:05.403Z,1001.24
2019-04-06T07:17:05.467Z,1001.24
2019-04-06T07:18:05.760Z,1001.21
2019-04-06T07:19:05.567Z,1001.21
2019-04-06T07:20:05.499Z,1001.23
2019-04-06T07:21:05.529Z,1001.25
2019-04-06T07:22:05.608Z,1001.24
2019-04-06T07:23:05.603Z,1001.24
2019-04-06T07:24:05.673Z,1001.24
2019-04-06T07:25:05.959Z,1001.24
2019-04-06T07:26:05.777Z,1001.25
2019-04-06T07:27:05.769Z,1001.26
2019-04-06T07:28:05.748Z,1001.25
2019-04-06T07:29:05.832Z,1001.21
2019-04-06T07:30:05.829Z,1001.27
2019-04-06T07:31:05.891Z,1001.22
2019-04-06T07:32:06.179Z,1001.24
2019-04-06T07:33:05.959Z,1001.26
2019-04-06T07:34:05.945Z,1001.21
2019-04-06T07:35:06.025Z,1001.23
2019-04-06T07:36:05.998Z,1001.20
2019-04-06T07:37:06.034Z,1001.23
2019-04-06T07:38:06.350Z,1001.26
2019-04-06T07:39:06.487Z,1001.26
2019-04-06T07:40:06.340Z,1001.28
2019-04-06T07:41:06.289Z,1001.26
2019-04-06T07:42:06.258Z,1001.25
2019-04-06T07:43:06.260Z,1001.31
2019-04-06T07:44:06.494Z,1001.28
2019-04-06T07:45:06.496Z,1001.28
2019-04-06T07:46:06.684Z,1001.28
2019-04-06T07:47:06.355Z,1001.33
2019-04-06T07:48:06.455Z,1001.32
2019-04-06T07:49:09.690Z,1001.34
2019-04-06T07:50:06.632Z,1001.35
2019-04-06T07:51:06.489Z,1001.32
2019-04-06T07:52:06.757Z,1001.37
2019-04-06T07:53:06.843Z,1001.32
2019-04-06T07:54:06.622Z,1001.32
2019-04-06T07:55:06.606Z,1001.29
2019-04-06T07:56:06.638Z,1001.32
2019-04-06T07:57:06.717Z,1001.32
2019-04-06T07:58:06.706Z,1001.33
2019-04-06T07:59:06.935Z,1001.31
2019-04-06T08:00:07.063Z,1001.28
2019-04-06T08:01:06.868Z,1001.31
2019-04-06T08:03:06.855Z,1001.29
2019-04-06T08:04:07.090Z,1001.25
2019-04-06T08:05:07.034Z,1001.25
2019-04-06T08:06:06.948Z,1001.23
2019-04-06T08:07:07.283Z,1001.21
2019-04-06T08:08:07.013Z,1001.25
2019-04-06T08:09:07.049Z,1001.19
2019-04-06T08:10:07.133Z,1001.25
2019-04-06T08:11:07.267Z,1001.23
2019-04-06T08:12:07.146Z,1001.24
2019-04-06T08:13:07.328Z,1001.22
2019-04-06T08:14:07.203Z,1001.25
2019-04-06T08:15:07.512Z,1001.27
2019-04-06T08:16:07.270Z,1001.26
2019-04-06T08:17:07.362Z,1001.31
2019-04-06T08:18:07.335Z,1001.28
2019-04-06T08:19:07.587Z,1001.28
2019-04-06T08:20:07.749Z,1001.30
2019-04-06T08:21:07.490Z,1001.30
2019-04-06T08:22:07.463Z,1001.29
2019-04-06T08:23:07.541Z,1001.29
2019-04-06T08:24:07.571Z,1001.29
2019-04-06T08:25:07.608Z,1001.26
2019-04-06T08:26:07.886Z,1001.30
2019-04-06T08:27:07.849Z,1001.31
2019-04-06T08:28:07.655Z,1001.31
2019-04-06T08:29:07.741Z,1001.29
2019-04-06T08:30:07.725Z,1001.31
2019-04-06T08:31:07.818Z,1001.33
2019-04-06T08:32:08.077Z,1001.35
2019-04-06T08:33:07.865Z,1001.28
2019-04-06T08:34:07.848Z,1001.29
2019-04-06T08:35:07.925Z,1001.32
2019-04-06T08:36:07.929Z,1001.27
2019-04-06T08:37:08.033Z,1001.32
2019-04-06T08:38:07.988Z,1001.29
2019-04-06T08:39:08.353Z,1001.31
2019-04-06T08:40:08.083Z,1001.32
2019-04-06T08:41:08.069Z,1001.33
2019-04-06T08:42:08.158Z,1001.33
2019-04-06T08:43:08.203Z,1001.30
2019-04-06T08:44:08.160Z,1001.31
2019-04-06T08:45:08.189Z,1001.23
2019-04-06T08:46:08.528Z,1001.24
2019-04-06T08:47:08.312Z,1001.25
2019-04-06T08:48:08.292Z,1001.23
2019-04-06T08:49:08.377Z,1001.25
2019-04-06T08:50:08.383Z,1001.22
2019-04-06T08:51:08.385Z,1001.21
2019-04-06T08:52:08.492Z,1001.22
2019-04-06T08:53:08.809Z,1001.26
2019-04-06T08:54:08.556Z,1001.24
2019-04-06T08:55:08.518Z,1001.25
2019-04-06T08:56:08.684Z,1001.29
2019-04-06T08:57:08.580Z,1001.29
2019-04-06T08:58:08.863Z,1001.27
2019-04-06T08:59:12.189Z,1001.33
2019-04-06T09:00:09.185Z,1001.30
2019-04-06T09:01:08.773Z,1001.29
2019-04-06T09:02:08.787Z,1001.30
2019-04-06T09:03:08.823Z,1001.34
2019-04-06T09:04:09.078Z,1001.32
2019-04-06T09:05:08.844Z,1001.31
2019-04-06T09:06:08.873Z,1001.30
2019-04-06T09:07:09.219Z,1001.27
2019-04-06T09:08:08.986Z,1001.30
2019-04-06T09:09:09.022Z,1001.29
2019-04-06T09:10:09.021Z,1001.25
2019-04-06T09:11:09.094Z,1001.27
2019-04-06T09:12:09.066Z,1001.27
2019-04-06T09:13:09.163Z,1001.22
2019-04-06T09:15:09.506Z,1001.19
2019-04-06T09:16:09.196Z,1001.21
2019-04-06T09:17:09.573Z,1001.14
2019-04-06T09:18:09.292Z,1001.19
2019-04-06T09:19:09.344Z,1001.20
2019-04-06T09:20:09.370Z,1001.18
2019-04-06T09:21:09.419Z,1001.18
2019-04-06T09:22:09.736Z,1001.20
2019-04-06T09:23:09.669Z,1001.18
2019-04-06T09:24:09.503Z,1001.14
2019-04-06T09:25:09.538Z,1001.15
2019-04-06T09:26:09.564Z,1001.11
2019-04-06T09:27:09.624Z,1001.11
2019-04-06T09:28:09.603Z,1001.11
2019-04-06T09:29:10.055Z,1001.11
2019-04-06T09:30:09.651Z,1001.13
2019-04-06T09:31:09.747Z,1001.09
2019-04-06T09:32:09.706Z,1001.07
2019-04-06T09:33:09.812Z,1001.08
2019-04-06T09:34:09.780Z,1001.05
2019-04-06T09:35:09.858Z,1001.11
2019-04-06T09:36:10.134Z,1001.05
2019-04-06T09:37:10.194Z,1001.03
2019-04-06T09:38:09.927Z,1001.05
2019-04-06T09:39:09.942Z,1001.01
2019-04-06T09:40:10.286Z,1001.06
2019-04-06T09:41:10.019Z,1001.03
2019-04-06T09:42:10.131Z,1001.00
2019-04-06T09:43:10.375Z,1001.00
2019-04-06T09:44:10.097Z,1001.05
2019-04-06T09:45:10.364Z,1001.00
2019-04-06T09:46:10.169Z,1001.00
2019-04-06T09:47:10.399Z,1000.95
2019-04-06T09:48:10.627Z,1000.94
2019-04-06T09:49:10.440Z,1000.96
2019-04-06T09:50:10.597Z,1000.92
2019-04-06T09:51:10.545Z,1000.92
2019-04-06T09:52:10.410Z,1000.94
2019-04-06T09:53:10.452Z,1000.94
2019-04-06T09:54:10.473Z,1000.94
2019-04-06T09:55:10.456Z,1000.87
2019-04-06T09:56:10.662Z,1000.91
2019-04-06T09:57:10.825Z,1000.88
2019-04-06T09:58:10.552Z,1000.85
2019-04-06T09:59:10.906Z,1000.85
2019-04-06T10:00:10.666Z,1000.87
2019-04-06T10:01:10.705Z,1000.87
2019-04-06T10:02:10.684Z,1000.89
2019-04-06T10:03:11.094Z,1000.87
2019-04-06T10:05:11.139Z,1000.86
2019-04-06T10:06:10.811Z,1000.86
2019-04-06T10:07:10.895Z,1000.82
2019-04-06T10:08:11.270Z,1000.83
2019-04-06T10:09:10.914Z,1000.84
2019-04-06T10:10:11.006Z,1000.84
2019-04-06T10:11:11.002Z,1000.85
2019-04-06T10:12:11.438Z,1000.82
2019-04-06T10:13:11.102Z,1000.79
2019-04-06T10:14:11.114Z,1000.82
2019-04-06T10:15:11.165Z,1000.83
2019-04-06T10:16:11.451Z,1000.82
2019-04-06T10:17:11.322Z,1000.83
2019-04-06T10:18:11.485Z,1000.84
2019-04-06T10:19:11.545Z,1000.85
2019-04-06T10:20:11.327Z,1000.83
2019-04-06T10:21:11.366Z,1000.87
2019-04-06T10:22:11.359Z,1000.87
2019-04-06T10:23:11.379Z,1000.84
2019-04-06T10:24:11.458Z,1000.84
2019-04-06T10:25:11.717Z,1000.84
2019-04-06T10:26:11.776Z,1000.87
2019-04-06T10:27:11.606Z,1000.92
2019-04-06T10:28:11.557Z,1000.89
2019-04-06T10:29:11.623Z,1000.91
2019-04-06T10:30:11.657Z,1000.93
2019-04-06T10:31:11.693Z,1000.94
2019-04-06T10:32:11.735Z,1000.93
2019-04-06T10:33:12.158Z,1000.88
2019-04-06T10:34:11.732Z,1000.88
2019-04-06T10:35:11.840Z,1000.88
2019-04-06T10:36:11.831Z,1000.87
2019-04-06T10:37:12.048Z,1000.84
2019-04-06T10:38:11.868Z,1000.82
2019-04-06T10:39:11.908Z,1000.85
2019-04-06T10:40:12.238Z,1000.71
2019-04-06T10:41:12.245Z,1000.74
2019-04-06T10:42:12.057Z,1000.79
2019-04-06T10:43:12.088Z,1000.78
2019-04-06T10:44:12.075Z,1000.76
2019-04-06T10:45:12.108Z,1000.76
2019-04-06T10:46:12.185Z,1000.75
2019-04-06T10:47:12.473Z,1000.73
2019-04-06T10:48:12.247Z,1000.70
2019-04-06T10:49:12.627Z,1000.67
2019-04-06T10:50:12.273Z,1000.66
2019-04-06T10:51:12.307Z,1000.64
2019-04-06T10:52:12.336Z,1000.63
2019-04-06T10:53:12.367Z,1000.67
2019-04-06T10:54:12.817Z,1000.65
2019-04-06T10:55:12.696Z,1000.69
2019-04-06T10:56:12.529Z,1000.61
2019-04-06T10:57:12.561Z,1000.62
2019-04-06T10:58:12.677Z,1000.66
2019-04-06T10:59:12.568Z,1000.64
2019-04-06T11:00:12.906Z,1000.66
2019-04-06T11:01:12.682Z,1000.62
2019-04-06T11:02:12.718Z,1000.60
2019-04-06T11:03:12.862Z,1000.58
2019-04-06T11:04:12.893Z,1000.57
2019-04-06T11:05:12.908Z,1000.57
2019-04-06T11:06:13.244Z,1000.53
2019-04-06T11:07:12.906Z,1000.52
2019-04-06T11:08:12.916Z,1000.52
2019-04-06T11:09:12.965Z,1000.48
2019-04-06T11:11:16.380Z,1000.56
2019-04-06T11:12:13.336Z,1000.54
2019-04-06T11:13:13.085Z,1000.57
2019-04-06T11:14:13.075Z,1000.55
2019-04-06T11:15:13.096Z,1000.53
2019-04-06T11:16:13.135Z,1000.48
2019-04-06T11:17:13.166Z,1000.48
2019-04-06T11:18:14.165Z,1000.50
2019-04-06T11:19:13.580Z,1000.52
2019-04-06T11:20:13.265Z,1000.49
2019-04-06T11:21:13.421Z,1000.50
2019-04-06T11:22:13.325Z,1000.47
2019-04-06T11:23:13.638Z,1000.51
2019-04-06T11:24:13.399Z,1000.44
2019-04-06T11:25:13.474Z,1000.46
2019-04-06T11:26:13.871Z,1000.44
2019-04-06T11:27:13.843Z,1000.47
2019-04-06T11:28:13.583Z,1000.43
2019-04-06T11:29:13.621Z,1000.39
2019-04-06T11:30:14.975Z,1000.43
2019-04-06T11:31:13.679Z,1000.43
2019-04-06T11:32:13.709Z,1000.38
2019-04-06T11:33:14.049Z,1000.35
2019-04-06T11:34:13.775Z,1000.40
2019-04-06T11:35:13.821Z,1000.39
2019-04-06T11:36:13.854Z,1000.41
2019-04-06T11:37:14.097Z,1000.38
2019-04-06T11:38:13.862Z,1000.32
2019-04-06T11:39:13.971Z,1000.33
2019-04-06T11:40:14.225Z,1000.34
2019-04-06T11:41:14.017Z,1000.37
2019-04-06T11:42:13.989Z,1000.33
2019-04-06T11:43:14.110Z,1000.28
2019-04-06T11:44:14.199Z,1000.29
2019-04-06T11:45:14.311Z,1000.29
2019-04-06T11:46:14.155Z,1000.29
2019-04-06T11:47:14.516Z,1000.27
2019-04-06T11:48:14.544Z,1000.27
2019-04-06T11:49:14.245Z,1000.27
2019-04-06T11:50:14.320Z,1000.29
2019-04-06T11:51:14.298Z,1000.26
2019-04-06T11:52:14.389Z,1000.26
2019-04-06T11:53:14.364Z,1000.26
2019-04-06T11:54:14.788Z,1000.29
2019-04-06T11:55:14.489Z,1000.27
2019-04-06T11:56:14.476Z,1000.25
2019-04-06T11:57:14.516Z,1000.26
2019-04-06T11:58:14.528Z,1000.22
2019-04-06T11:59:14.640Z,1000.24
2019-04-06T12:00:24.649Z,1000.24
2019-04-06T12:01:14.927Z,1000.24
2019-04-06T12:02:14.849Z,1000.21
2019-04-06T12:03:14.757Z,1000.17
2019-04-06T12:04:14.735Z,1000.17
2019-04-06T12:05:14.827Z,1000.18
2019-04-06T12:06:14.810Z,1000.19
2019-04-06T12:07:14.890Z,1000.19
2019-04-06T12:08:15.224Z,1000.20
2019-04-06T12:09:14.905Z,1000.16
2019-04-06T12:10:14.981Z,1000.13
2019-04-06T12:11:14.971Z,1000.15
2019-04-06T12:12:15.052Z,1000.14
2019-04-06T12:13:15.041Z,1000.13
2019-04-06T12:14:15.244Z,1000.17
2019-04-06T12:15:15.445Z,1000.10
2019-04-06T12:16:15.192Z,1000.10
2019-04-06T12:17:15.410Z,1000.13
2019-04-06T12:18:17.583Z,1000.13
2019-04-06T12:19:15.237Z,1000.10
2019-04-06T12:20:15.338Z,1000.08
2019-04-06T12:21:15.361Z,1000.09
2019-04-06T12:22:15.634Z,1000.04
2019-04-06T12:23:15.511Z,1000.08
2019-04-06T12:24:15.651Z,1000.10
2019-04-06T12:25:15.487Z,1000.06
2019-04-06T12:26:15.467Z,1000.08
2019-04-06T12:27:15.558Z,1000.06
2019-04-06T12:28:15.539Z,1000.08
2019-04-06T12:29:16.953Z,1000.10
2019-04-06T12:30:15.612Z,1000.10
2019-04-06T12:31:15.713Z,1000.09
2019-04-06T12:32:15.693Z,1000.07
2019-04-06T12:33:15.710Z,1000.08
2019-04-06T12:34:15.794Z,1000.10